createdAt,value
2019-02-27T00:01:16.755Z,35.38
2019-02-27T00:03:44.575Z,39.75
2019-02-27T00:06:15.915Z,36.63
2019-02-27T00:08:44.454Z,47.70
2019-02-27T00:11:13.388Z,33.28
2019-02-27T00:13:42.170Z,40.70
2019-02-27T00:16:11.616Z,47.73
2019-02-27T00:18:40.462Z,41.33
2019-02-27T00:21:10.982Z,37.30
2019-02-27T00:23:39.903Z,36.58
2019-02-27T00:26:09.499Z,50.07
2019-02-27T00:28:38.555Z,38.43
2019-02-27T00:31:11.190Z,38.07
2019-02-27T00:33:38.705Z,39.98
2019-02-27T00:36:12.024Z,36.00
2019-02-27T00:38:38.634Z,40.63
2019-02-27T00:41:12.058Z,40.47
2019-02-27T00:43:38.687Z,38.40
2019-02-27T00:46:07.486Z,46.18
2019-02-27T00:48:36.317Z,40.80
2019-02-27T00:51:05.136Z,37.05
2019-02-27T00:53:33.954Z,42.25
2019-02-27T00:56:02.766Z,43.45
2019-02-27T00:58:31.590Z,37.63
2019-02-27T01:01:00.502Z,39.65
2019-02-27T01:03:29.316Z,33.73
2019-02-27T01:05:58.135Z,46.70
2019-02-27T01:08:27.649Z,36.17
2019-02-27T01:10:57.019Z,36.42
2019-02-27T01:13:26.048Z,46.35
2019-02-27T01:15:54.766Z,43.65
2019-02-27T01:18:23.627Z,34.18
2019-02-27T01:20:52.427Z,33.83
2019-02-27T01:23:21.284Z,37.35
2019-02-27T01:25:50.240Z,34.33
2019-02-27T01:28:19.432Z,39.13
2019-02-27T01:30:48.420Z,38.45
2019-02-27T01:33:17.184Z,47.00
2019-02-27T01:35:46.147Z,32.17
2019-02-27T01:38:15.329Z,34.43
2019-02-27T01:40:44.718Z,33.38
2019-02-27T01:43:13.620Z,43.10
2019-02-27T01:45:42.545Z,36.05
2019-02-27T01:48:11.824Z,35.08
2019-02-27T01:50:40.645Z,38.28
2019-02-27T01:53:10.243Z,40.25
2019-02-27T01:55:39.123Z,40.58
2019-02-27T01:58:09.505Z,42.33
2019-02-27T02:00:38.811Z,28.70
2019-02-27T02:03:07.823Z,42.33
2019-02-27T02:05:36.756Z,37.85
2019-02-27T02:08:07.855Z,43.05
2019-02-27T02:10:36.771Z,47.25
2019-02-27T02:13:33.126Z,33.80
2019-02-27T02:16:34.397Z,30.72
2019-02-27T02:19:39.341Z,36.68
2019-02-27T02:22:51.520Z,33.73
2019-02-27T02:25:42.094Z,36.00
2019-02-27T02:28:48.793Z,32.53
2019-02-27T02:31:55.762Z,31.65
2019-02-27T02:35:00.383Z,41.08
2019-02-27T02:38:17.145Z,33.98
2019-02-27T02:41:00.831Z,30.12
2019-02-27T02:44:29.072Z,36.65
2019-02-27T02:47:25.554Z,40.80
2019-02-27T02:50:45.156Z,39.58
2019-02-27T02:53:37.041Z,30.60
2019-02-27T02:56:31.050Z,31.45
2019-02-27T02:59:36.901Z,40.40
2019-02-27T03:02:23.543Z,39.38
2019-02-27T03:05:23.239Z,42.05
2019-02-27T03:08:19.814Z,34.33
2019-02-27T03:11:04.942Z,36.40
2019-02-27T03:14:30.313Z,39.10
2019-02-27T03:17:27.417Z,36.77
2019-02-27T03:20:17.605Z,36.95
2019-02-27T03:23:20.412Z,32.38
2019-02-27T03:26:16.539Z,30.15
2019-02-27T03:28:58.670Z,38.02
2019-02-27T03:31:57.890Z,27.15
2019-02-27T03:34:59.330Z,31.12
2019-02-27T03:38:02.292Z,36.17
2019-02-27T03:41:12.485Z,29.70
2019-02-27T03:44:23.011Z,29.15
2019-02-27T03:47:32.375Z,31.50
2019-02-27T03:50:28.577Z,36.48
2019-02-27T03:53:49.932Z,38.28
2019-02-27T03:56:50.362Z,43.73
2019-02-27T04:00:19.215Z,37.80
2019-02-27T04:03:34.832Z,29.32
2019-02-27T04:06:47.784Z,35.92
2019-02-27T04:09:19.825Z,38.00
2019-02-27T04:11:47.079Z,39.55
2019-02-27T04:14:29.650Z,34.70
2019-02-27T04:17:05.462Z,42.33
2019-02-27T04:19:29.389Z,49.25
2019-02-27T04:22:01.130Z,29.20
2019-02-27T04:24:28.954Z,37.40
2019-02-27T04:26:57.736Z,29.75
2019-02-27T04:29:26.553Z,27.25
2019-02-27T04:31:55.644Z,39.60
2019-02-27T04:34:24.659Z,39.85
2019-02-27T04:36:53.531Z,32.35
2019-02-27T04:39:22.558Z,31.55
2019-02-27T04:41:52.542Z,35.30
2019-02-27T04:44:21.574Z,44.10
2019-02-27T04:46:54.845Z,49.42
2019-02-27T04:49:20.951Z,40.88
2019-02-27T04:52:08.906Z,34.55
2019-02-27T04:54:41.346Z,37.28
2019-02-27T04:57:09.033Z,46.40
2019-02-27T04:59:37.982Z,38.48
2019-02-27T05:02:06.837Z,43.08
2019-02-27T05:04:35.890Z,34.25
2019-02-27T05:07:04.654Z,49.60
2019-02-27T05:09:34.177Z,37.23
2019-02-27T05:12:03.531Z,39.13
2019-02-27T05:14:32.670Z,33.65
2019-02-27T05:17:01.887Z,49.88
2019-02-27T05:19:30.657Z,41.70
2019-02-27T05:22:01.205Z,34.48
2019-02-27T05:24:30.087Z,55.25
2019-02-27T05:27:00.881Z,37.35
2019-02-27T05:29:30.140Z,44.45
2019-02-27T05:31:59.013Z,38.67
2019-02-27T05:34:27.790Z,36.95
2019-02-27T05:36:56.631Z,50.65
2019-02-27T05:39:25.612Z,48.75
2019-02-27T05:41:54.659Z,46.02
2019-02-27T05:44:23.663Z,36.50
2019-02-27T05:46:52.566Z,41.42
2019-02-27T05:49:21.385Z,39.80
2019-02-27T05:51:50.367Z,35.23
2019-02-27T05:54:19.099Z,52.83
2019-02-27T05:56:49.721Z,34.75
2019-02-27T05:59:19.395Z,40.80
2019-02-27T06:01:48.179Z,32.25
2019-02-27T06:04:18.197Z,45.70
2019-02-27T06:06:47.139Z,32.13
2019-02-27T06:09:16.402Z,39.08
2019-02-27T06:11:45.687Z,38.20
2019-02-27T06:14:24.623Z,25.75
2019-02-27T06:16:53.540Z,34.53
2019-02-27T06:19:22.499Z,49.27
2019-02-27T06:21:56.012Z,42.55
2019-02-27T06:24:21.892Z,52.30
2019-02-27T06:26:51.024Z,35.40
2019-02-27T06:29:23.269Z,46.28
2019-02-27T06:31:51.006Z,34.25
2019-02-27T06:34:22.381Z,37.70
2019-02-27T06:36:50.864Z,37.53
2019-02-27T06:39:19.652Z,38.20
2019-02-27T06:41:49.789Z,44.30
2019-02-27T06:44:19.148Z,43.38
2019-02-27T06:46:51.141Z,47.30
2019-02-27T06:49:19.739Z,38.33
2019-02-27T06:51:48.486Z,38.08
2019-02-27T06:54:18.375Z,40.10
2019-02-27T06:56:48.488Z,39.58
2019-02-27T06:59:18.113Z,45.08
2019-02-27T07:01:47.498Z,45.52
2019-02-27T07:04:17.614Z,48.65
2019-02-27T07:06:46.696Z,32.58
2019-02-27T07:09:15.596Z,48.08
2019-02-27T07:11:46.249Z,34.95
2019-02-27T07:14:15.091Z,60.58
2019-02-27T07:16:43.972Z,47.13
2019-02-27T07:19:13.217Z,36.25
2019-02-27T07:21:43.480Z,44.25
2019-02-27T07:24:12.398Z,50.75
2019-02-27T07:26:41.572Z,38.80
2019-02-27T07:29:10.780Z,46.45
2019-02-27T07:31:39.625Z,42.58
2019-02-27T07:34:08.621Z,55.03
2019-02-27T07:36:38.508Z,47.88
2019-02-27T07:39:08.051Z,52.03
2019-02-27T07:41:36.898Z,49.88
2019-02-27T07:44:05.875Z,49.63
2019-02-27T07:46:35.576Z,42.60
2019-02-27T07:49:04.545Z,44.40
2019-02-27T07:51:33.420Z,45.83
2019-02-27T07:54:03.930Z,46.75
2019-02-27T07:56:33.310Z,47.73
2019-02-27T07:59:02.109Z,44.18
2019-02-27T08:01:30.867Z,48.08
2019-02-27T08:03:59.806Z,42.33
2019-02-27T08:06:28.718Z,58.28
2019-02-27T08:08:57.856Z,42.35
2019-02-27T08:11:27.533Z,50.45
2019-02-27T08:13:56.642Z,48.53
2019-02-27T08:16:25.541Z,51.77
2019-02-27T08:18:54.354Z,44.57
2019-02-27T08:21:23.298Z,41.33
2019-02-27T08:23:52.121Z,46.57
2019-02-27T08:26:26.966Z,45.12
2019-02-27T08:28:55.986Z,49.03
2019-02-27T08:31:28.007Z,41.53
2019-02-27T08:33:56.293Z,56.73
2019-02-27T08:36:25.199Z,64.00
2019-02-27T08:38:54.557Z,53.13
2019-02-27T08:41:23.479Z,50.17
2019-02-27T08:43:52.491Z,53.37
2019-02-27T08:46:21.680Z,60.93
2019-02-27T08:48:50.753Z,64.43
2019-02-27T08:51:19.571Z,58.77
2019-02-27T08:53:48.381Z,56.57
2019-02-27T08:56:17.664Z,64.33
2019-02-27T08:58:46.540Z,52.87
2019-02-27T09:01:15.488Z,51.23
2019-02-27T09:03:44.715Z,60.10
2019-02-27T09:06:15.914Z,48.53
2019-02-27T09:08:44.400Z,57.03
2019-02-27T09:11:14.710Z,55.20
2019-02-27T09:13:43.970Z,59.73
2019-02-27T09:16:13.392Z,53.83
2019-02-27T09:18:44.108Z,50.80
2019-02-27T09:21:13.148Z,65.20
2019-02-27T09:23:42.239Z,56.20
2019-02-27T09:26:11.163Z,63.37
2019-02-27T09:28:44.067Z,49.33
2019-02-27T09:31:12.103Z,56.27
2019-02-27T09:33:41.716Z,63.03
2019-02-27T09:36:10.999Z,56.87
2019-02-27T09:38:40.789Z,58.97
2019-02-27T09:41:12.180Z,52.90
2019-02-27T09:43:40.312Z,60.20
2019-02-27T09:46:09.369Z,55.90
2019-02-27T09:48:43.132Z,53.33
2019-02-27T09:51:12.086Z,51.33
2019-02-27T09:53:41.576Z,49.83
2019-02-27T09:56:15.234Z,52.80
2019-02-27T09:58:45.646Z,51.70
2019-02-27T10:01:17.247Z,59.50
2019-02-27T10:03:46.246Z,50.83
2019-02-27T10:06:15.328Z,60.67
2019-02-27T10:08:44.315Z,47.57
2019-02-27T10:11:13.231Z,55.00
2019-02-27T10:13:42.047Z,48.97
2019-02-27T10:16:11.084Z,55.90
2019-02-27T10:18:40.005Z,53.47
2019-02-27T10:21:09.450Z,56.83
2019-02-27T10:23:39.742Z,53.07
2019-02-27T10:26:08.986Z,55.53
2019-02-27T10:28:39.635Z,54.87
2019-02-27T10:31:09.117Z,54.73
2019-02-27T10:33:37.871Z,55.37
2019-02-27T10:36:07.164Z,50.50
2019-02-27T10:38:40.272Z,67.17
2019-02-27T10:41:06.993Z,57.70
2019-02-27T10:43:35.887Z,77.73
2019-02-27T10:46:04.864Z,57.33
2019-02-27T10:48:33.674Z,57.33
2019-02-27T10:51:03.682Z,58.90
2019-02-27T10:53:32.783Z,60.17
2019-02-27T10:56:01.776Z,57.40
2019-02-27T10:58:30.596Z,54.70
2019-02-27T11:01:01.162Z,50.93
2019-02-27T11:03:29.988Z,59.13
2019-02-27T11:05:58.912Z,57.37
2019-02-27T11:08:29.547Z,63.83
2019-02-27T11:10:58.820Z,63.40
2019-02-27T11:13:27.700Z,52.67
2019-02-27T11:15:56.663Z,55.80
2019-02-27T11:18:25.792Z,50.80
2019-02-27T11:20:56.725Z,60.33
2019-02-27T11:23:25.843Z,65.20
2019-02-27T11:25:56.925Z,58.20
2019-02-27T11:28:25.944Z,52.00
2019-02-27T11:30:54.798Z,49.73
2019-02-27T11:33:25.884Z,53.13
2019-02-27T11:35:54.456Z,50.53
2019-02-27T11:38:24.782Z,55.73
2019-02-27T11:40:54.500Z,54.33
2019-02-27T11:43:23.439Z,58.77
2019-02-27T11:45:57.697Z,38.40
2019-02-27T11:48:24.078Z,42.00
2019-02-27T11:50:53.011Z,40.13
2019-02-27T11:53:21.890Z,42.03
2019-02-27T11:55:50.742Z,54.80
2019-02-27T11:58:19.879Z,47.90
2019-02-27T12:00:48.715Z,35.80
2019-02-27T12:03:17.894Z,34.67
2019-02-27T12:05:46.819Z,35.57
2019-02-27T12:08:15.868Z,34.73
2019-02-27T12:10:44.716Z,36.03
2019-02-27T12:13:14.039Z,36.77
2019-02-27T12:15:43.644Z,34.63
2019-02-27T12:18:13.178Z,35.13
2019-02-27T12:20:41.995Z,39.37
2019-02-27T12:23:10.922Z,41.90
2019-02-27T12:25:41.056Z,35.43
2019-02-27T12:28:10.208Z,35.47
2019-02-27T12:30:39.195Z,37.57
2019-02-27T12:33:08.229Z,35.50
2019-02-27T12:35:37.263Z,35.87
2019-02-27T12:38:08.093Z,36.37
2019-02-27T12:40:37.142Z,33.67
2019-02-27T12:43:06.142Z,36.43
2019-02-27T12:45:35.170Z,33.23
2019-02-27T12:48:04.246Z,33.70
2019-02-27T12:50:34.134Z,35.60
2019-02-27T12:53:03.000Z,32.90
2019-02-27T12:55:35.486Z,31.67
2019-02-27T12:58:02.400Z,33.67
2019-02-27T13:00:31.375Z,33.20
2019-02-27T13:03:00.138Z,33.90
2019-02-27T13:05:29.081Z,33.50
2019-02-27T13:07:57.926Z,34.20
2019-02-27T13:10:27.059Z,86.90
2019-02-27T13:12:56.036Z,37.13
2019-02-27T13:15:25.018Z,37.87
2019-02-27T13:17:57.650Z,35.53
2019-02-27T13:20:25.811Z,36.17
2019-02-27T13:22:54.628Z,33.83
2019-02-27T13:25:24.093Z,33.70
2019-02-27T13:27:53.716Z,32.73
2019-02-27T13:30:22.781Z,35.40
2019-02-27T13:32:51.756Z,32.73
2019-02-27T13:35:23.152Z,32.50
2019-02-27T13:37:51.547Z,33.80
2019-02-27T13:40:21.068Z,32.60
2019-02-27T13:42:52.348Z,35.70
2019-02-27T13:45:22.362Z,38.40
2019-02-27T13:47:51.378Z,34.77
2019-02-27T13:50:24.426Z,35.50
2019-02-27T13:52:51.986Z,36.13
2019-02-27T13:55:21.551Z,37.90
2019-02-27T13:57:50.757Z,38.53
2019-02-27T14:00:22.048Z,34.20
2019-02-27T14:02:51.247Z,38.00
2019-02-27T14:05:20.066Z,34.80
2019-02-27T14:07:49.212Z,34.20
2019-02-27T14:10:20.599Z,37.57
2019-02-27T14:12:48.866Z,44.27
2019-02-27T14:15:17.948Z,37.63
2019-02-27T14:17:46.771Z,34.13
2019-02-27T14:20:17.562Z,35.67
2019-02-27T14:22:46.541Z,34.70
2019-02-27T14:25:17.556Z,35.17
2019-02-27T14:27:47.430Z,32.27
2019-02-27T14:30:19.392Z,34.80
2019-02-27T14:32:48.732Z,36.77
2019-02-27T14:35:18.221Z,32.90
2019-02-27T14:37:49.943Z,32.93
2019-02-27T14:40:18.796Z,32.73
2019-02-27T14:42:54.039Z,36.97
2019-02-27T14:45:20.799Z,50.00
2019-02-27T14:47:50.144Z,30.90
2019-02-27T14:50:20.276Z,31.03
2019-02-27T14:52:49.992Z,32.43
2019-02-27T14:55:19.459Z,31.57
2019-02-27T14:57:51.023Z,31.00
2019-02-27T15:00:24.602Z,30.17
2019-02-27T15:02:55.580Z,31.30
2019-02-27T15:05:24.089Z,31.33
2019-02-27T15:07:54.616Z,29.93
2019-02-27T15:10:24.226Z,32.97
2019-02-27T15:12:55.041Z,30.40
2019-02-27T15:15:28.510Z,30.70
2019-02-27T15:17:57.690Z,29.20
2019-02-27T15:20:26.978Z,31.03
2019-02-27T15:22:55.920Z,29.13
2019-02-27T15:25:27.305Z,31.67
2019-02-27T15:27:58.826Z,32.60
2019-02-27T15:30:27.852Z,31.37
2019-02-27T15:32:56.630Z,30.37
2019-02-27T15:35:25.595Z,30.73
2019-02-27T15:37:54.586Z,30.97
2019-02-27T15:40:28.640Z,29.73
2019-02-27T15:42:55.094Z,36.97
2019-02-27T15:45:24.008Z,29.90
2019-02-27T15:47:52.837Z,30.97
2019-02-27T15:50:23.438Z,35.40
2019-02-27T15:52:52.534Z,31.67
2019-02-27T15:55:21.291Z,34.13
2019-02-27T15:57:53.741Z,30.00
2019-02-27T16:00:22.418Z,31.80
2019-02-27T16:02:52.261Z,36.20
2019-02-27T16:05:21.570Z,35.80
2019-02-27T16:07:50.878Z,42.17
2019-02-27T16:10:21.300Z,70.60
2019-02-27T16:12:50.854Z,32.47
2019-02-27T16:15:19.919Z,31.27
2019-02-27T16:17:49.024Z,32.40
2019-02-27T16:20:18.595Z,34.83
2019-02-27T16:22:48.516Z,31.80
2019-02-27T16:25:19.961Z,29.87
2019-02-27T16:27:49.056Z,30.03
2019-02-27T16:30:23.170Z,30.60
2019-02-27T16:32:52.114Z,42.77
2019-02-27T16:35:21.285Z,39.53
2019-02-27T16:37:56.601Z,32.63
2019-02-27T16:40:21.686Z,32.83
2019-02-27T16:42:51.284Z,32.07
2019-02-27T16:45:22.564Z,41.53
2019-02-27T16:47:54.018Z,33.00
2019-02-27T16:50:24.781Z,31.70
2019-02-27T16:52:54.368Z,34.50
2019-02-27T16:55:23.786Z,29.87
2019-02-27T16:57:57.887Z,30.50
2019-02-27T17:00:28.719Z,31.60
2019-02-27T17:02:57.834Z,30.50
2019-02-27T17:05:26.871Z,35.83
2019-02-27T17:08:00.260Z,33.40
2019-02-27T17:10:29.356Z,36.27
2019-02-27T17:12:58.800Z,39.33
2019-02-27T17:15:27.705Z,31.90
2019-02-27T17:17:56.669Z,31.50
2019-02-27T17:20:25.799Z,32.80
2019-02-27T17:22:54.686Z,34.80
2019-02-27T17:25:28.681Z,30.57
2019-02-27T17:27:54.057Z,32.00
2019-02-27T17:30:25.132Z,33.33
2019-02-27T17:32:54.241Z,34.63
2019-02-27T17:35:23.564Z,34.03
2019-02-27T17:37:53.195Z,37.97
2019-02-27T17:40:22.246Z,31.40
2019-02-27T17:42:53.590Z,39.33
2019-02-27T17:45:21.814Z,31.33
2019-02-27T17:47:50.825Z,31.13
2019-02-27T17:50:19.738Z,32.20
2019-02-27T17:52:49.747Z,30.77
2019-02-27T17:55:18.807Z,34.50
2019-02-27T17:57:47.802Z,32.50
2019-02-27T18:00:28.374Z,31.90
2019-02-27T18:02:56.655Z,32.07
2019-02-27T18:05:26.229Z,33.33
2019-02-27T18:07:55.342Z,31.67
2019-02-27T18:10:24.070Z,31.60
2019-02-27T18:12:52.840Z,36.50
2019-02-27T18:15:21.747Z,35.50
2019-02-27T18:17:50.983Z,42.23
2019-02-27T18:20:24.541Z,31.70
2019-02-27T18:22:50.640Z,35.97
2019-02-27T18:25:19.785Z,34.30
2019-02-27T18:27:48.625Z,33.20
2019-02-27T18:30:18.878Z,35.07
2019-02-27T18:32:49.690Z,38.50
2019-02-27T18:35:18.745Z,36.47
2019-02-27T18:37:53.201Z,39.43
2019-02-27T18:40:18.922Z,39.90
2019-02-27T18:42:47.986Z,39.17
2019-02-27T18:45:17.036Z,44.77
2019-02-27T18:48:07.341Z,43.67
2019-02-27T18:50:35.932Z,45.10
2019-02-27T18:53:04.936Z,36.63
2019-02-27T18:55:34.022Z,50.73
2019-02-27T18:58:03.097Z,40.93
2019-02-27T19:00:33.393Z,49.10
2019-02-27T19:03:04.438Z,33.33
2019-02-27T19:05:33.818Z,32.67
2019-02-27T19:08:02.922Z,40.33
2019-02-27T19:10:31.997Z,43.43
2019-02-27T19:13:01.193Z,45.53
2019-02-27T19:15:30.208Z,38.20
2019-02-27T19:17:59.325Z,32.83
2019-02-27T19:20:29.258Z,42.37
2019-02-27T19:23:00.261Z,37.63
2019-02-27T19:25:34.301Z,35.60
2019-02-27T19:27:59.562Z,37.10
2019-02-27T19:30:28.561Z,42.60
2019-02-27T19:33:01.502Z,46.10
2019-02-27T19:35:28.388Z,32.03
2019-02-27T19:37:57.800Z,36.77
2019-02-27T19:40:29.876Z,35.00
2019-02-27T19:42:59.595Z,46.00
2019-02-27T19:45:28.644Z,34.90
2019-02-27T19:47:57.795Z,30.70
2019-02-27T19:50:26.992Z,29.80
2019-02-27T19:52:56.195Z,50.90
2019-02-27T19:55:27.429Z,36.00
2019-02-27T19:57:55.694Z,31.40
2019-02-27T20:00:26.437Z,31.30
2019-02-27T20:02:59.311Z,39.37
2019-02-27T20:05:26.144Z,33.30
2019-02-27T20:07:55.256Z,29.43
2019-02-27T20:10:29.098Z,40.13
2019-02-27T20:12:55.496Z,36.47
2019-02-27T20:15:24.495Z,38.00
2019-02-27T20:17:53.825Z,34.20
2019-02-27T20:20:22.855Z,30.83
2019-02-27T20:22:53.489Z,29.50
2019-02-27T20:25:23.600Z,35.93
2019-02-27T20:27:53.040Z,26.87
2019-02-27T20:30:22.340Z,39.63
2019-02-27T20:32:51.447Z,35.70
2019-02-27T20:35:20.672Z,38.10
2019-02-27T20:37:51.052Z,33.20
2019-02-27T20:40:20.162Z,27.73
2019-02-27T20:42:52.107Z,40.73
2019-02-27T20:45:20.099Z,36.60
2019-02-27T20:47:49.010Z,29.80
2019-02-27T20:50:21.825Z,34.60
2019-02-27T20:52:51.240Z,32.40
2019-02-27T20:55:20.015Z,30.00
2019-02-27T20:57:49.552Z,36.70
2019-02-27T21:00:18.898Z,29.37
2019-02-27T21:02:50.337Z,35.33
2019-02-27T21:05:18.764Z,29.10
2019-02-27T21:07:47.664Z,34.60
2019-02-27T21:10:20.850Z,31.40
2019-02-27T21:12:54.037Z,38.10
2019-02-27T21:15:19.747Z,29.67
2019-02-27T21:17:48.618Z,39.37
2019-02-27T21:20:17.515Z,28.53
2019-02-27T21:22:46.600Z,36.97
2019-02-27T21:25:15.740Z,28.23
2019-02-27T21:27:44.630Z,34.17
2019-02-27T21:30:17.818Z,31.63
2019-02-27T21:32:45.673Z,31.43
2019-02-27T21:35:14.534Z,33.33
2019-02-27T21:37:45.512Z,37.00
2019-02-27T21:40:14.591Z,32.90
2019-02-27T21:42:43.952Z,24.50
2019-02-27T21:45:14.687Z,26.67
2019-02-27T21:47:44.009Z,25.87
2019-02-27T21:50:14.835Z,21.10
2019-02-27T21:52:43.744Z,32.10
2019-02-27T21:55:13.634Z,37.20
2019-02-27T21:57:43.006Z,33.53
2019-02-27T22:00:14.746Z,27.40
2019-02-27T22:02:43.960Z,23.27
2019-02-27T22:05:18.489Z,27.83
2019-02-27T22:07:43.439Z,26.57
2019-02-27T22:10:12.776Z,25.80
2019-02-27T22:12:41.971Z,20.10
2019-02-27T22:15:21.884Z,31.77
2019-02-27T22:17:47.075Z,29.70
2019-02-27T22:20:15.978Z,23.50
2019-02-27T22:22:44.774Z,23.97
2019-02-27T22:25:13.794Z,22.97
2019-02-27T22:27:43.320Z,29.77
2019-02-27T22:30:14.892Z,20.95
2019-02-27T22:32:47.517Z,35.13
2019-02-27T22:35:14.255Z,21.97
2019-02-27T22:37:43.412Z,21.47
2019-02-27T22:40:14.964Z,28.32
2019-02-27T22:42:45.580Z,42.97
2019-02-27T22:45:15.439Z,26.90
2019-02-27T22:47:44.938Z,45.83
2019-02-27T22:50:14.828Z,23.85
2019-02-27T22:52:43.769Z,17.87
2019-02-27T22:55:12.778Z,24.98
2019-02-27T22:57:41.555Z,23.55
2019-02-27T23:00:56.366Z,24.70
2019-02-27T23:03:27.416Z,26.80
2019-02-27T23:05:56.715Z,18.50
2019-02-27T23:08:25.770Z,30.30
2019-02-27T23:10:55.371Z,24.72
2019-02-27T23:13:24.377Z,30.72
2019-02-27T23:15:57.968Z,27.55
2019-02-27T23:18:23.870Z,24.85
2019-02-27T23:20:55.369Z,17.37
2019-02-27T23:23:23.507Z,25.92
2019-02-27T23:25:52.648Z,25.30
2019-02-27T23:28:21.484Z,20.90
2019-02-27T23:30:50.623Z,25.02
2019-02-27T23:33:19.378Z,24.00
2019-02-27T23:35:50.263Z,20.55
2019-02-27T23:38:18.718Z,25.97
2019-02-27T23:40:49.032Z,22.37
2019-02-27T23:43:19.717Z,23.22
2019-02-27T23:45:48.761Z,21.37
2019-02-27T23:48:17.762Z,25.43
2019-02-27T23:50:46.560Z,21.33
2019-02-27T23:53:15.428Z,17.52
2019-02-27T23:55:45.396Z,22.20
2019-02-27T23:58:14.411Z,19.10
